Latest Coastal Weather Observations for Gabo Island

IDV60701

Issued at 7:52 pm EST Monday 4 May 2026 (issued every 10 minutes, with the page automatically refreshed every 10 minutes)

About coastal observations | Map of coastal stations | Coastal observations for VIC | Marine services | Other Formats
Station Details ID: 084016 Name: GABO ISLAND LIGHTHOUSE Lat: -37.57 Lon: 149.92 Height: 15.0 m
Data from the previous 72 hours. | See also: Recent months at Gabo Island
Date/Time
EST
Wind Sea
Height
m
Swell Vis
km
Cloud Weather Temp
°C
Press
MSL
hPa
Rain since
9am
mm
Dir  Spd
kts
Gust
kts
Height
m
Period
s
Dir
04/07:30pm NW 7 9 - - - - - - - 14.9 1012.7 0.0
04/07:00pm NW 7 8 - - - - - - - 15.1 1012.7 0.0
04/06:30pm NW 6 7 - - - - - - - 15.0 1012.4 0.0
04/06:00pm W 9 11 - - - - - - - 16.2 1011.9 0.0
04/05:30pm SSW 10 11 - - - - - - - 16.7 1011.8 0.0
04/05:00pm WSW 12 16 - - - - - - - 16.9 1012.0 0.0
04/04:30pm WSW 15 18 - - - - - - - 17.1 1011.7 0.0
04/04:00pm WSW 17 21 - - - - - - - 18.0 1011.4 0.0
04/03:30pm SW 16 19 - - - - - - - 17.8 1011.3 0.0
04/03:00pm SW 15 19 2 2.0 9 E 25 Mostly cloudy Fine 18.1 1011.0 0.0
04/02:30pm SW 15 19 - - - - - - - 18.0 1010.9 0.0
04/02:00pm SSW 18 23 - - - - - - - 18.1 1010.5 0.0
04/01:30pm SSW 18 22 - - - - - - - 18.2 1010.6 0.0
04/01:00pm SSW 15 18 - - - - - - - 18.4 1010.9 0.0
04/12:30pm SW 13 16 - - - - - - - 19.0 1011.3 0.0
04/12:00pm SSW 15 18 - - - - - - - 18.5 1011.5 0.0
04/11:30am SSW 10 14 - - - - - - - 18.7 1012.0 0.0
04/11:00am SSW 4 4 - - - - - - - 19.5 1012.5 0.0
04/10:30am CALM 0 3 - - - - - - - 19.5 1012.9 0.0
04/10:00am N 5 7 - - - - - - - 20.1 1012.9 0.0
04/09:30am NNE 7 10 - - - - - - - 19.8 1012.9 0.0
04/09:00am NNE 5 7 2 2.0 9 E 20 Mostly cloudy Fine 19.2 1012.9 4.2
04/08:30am NNE 9 11 - - - - - - - 19.2 1012.9 4.2
04/08:00am NNE 11 13 - - - - - - - 18.7 1012.5 4.2
04/07:30am NE 12 15 - - - - - - - 18.1 1012.3 4.2
04/07:00am NNE 11 13 - - - - - - - 17.5 1012.0 4.2
04/06:30am NE 11 13 - - - - - - - 17.3 1011.9 4.2
04/06:00am NNE 10 11 - - - - - - - 17.4 1012.3 4.0
04/05:30am NNE 10 11 - - - - - - - 17.5 1012.3 4.0
04/05:00am ENE 11 13 - - - - - - - 17.9 1012.2 3.8
04/04:30am E 5 7 - - - - - - - 17.8 1012.6 3.6
04/04:00am ESE 4 6 - - - - - - - 17.8 1013.1 3.0
04/03:30am W 5 6 - - - - - - - 17.8 1013.7 2.0
04/03:00am WSW 7 8 2 2.0 9 NE 20 Cloudy Rain 18.0 1013.7 1.2
04/02:30am WSW 7 10 - - - - - - - 18.3 1014.0 0.8
04/02:00am NW 7 9 - - - - - - - 18.7 1013.7 0.0
04/01:30am N 9 12 - - - - - - - 18.7 1013.5 0.0
04/01:00am NNE 15 17 - - - - - - - 19.1 1013.5 0.0
04/12:30am NNE 15 18 - - - - - - - 19.2 1013.5 0.0
04/12:00am NNE 20 26 - - - - - - - 19.9 1013.5 0.0
 
Date/Time
EST
Wind Sea
Height
m
Swell Vis
km
Cloud Weather Temp
°C
Press
MSL
hPa
Rain since
9am
mm
Dir  Spd
kts
Gust
kts
Height
m
Period
s
Dir
03/11:30pm NNE 23 30 - - - - - - - 20.1 1013.5 0.0
03/11:21pm NNE 24 34 - - - - - - - 20.2 1013.5 0.0
03/11:00pm NNE 25 32 - - - - - - - 20.3 1013.6 0.0
03/10:52pm NNE 22 32 - - - - - - - 20.2 1013.6 0.0
03/10:30pm NNE 22 28 - - - - - - - 20.2 1013.8 0.0
03/10:00pm NNE 25 31 - - - - - - - 20.3 1014.3 0.0
03/09:30pm NNE 25 32 - - - - - - - 20.4 1014.6 0.0
03/09:00pm NNE 28 35 2 2.5 9 NE 25 Cloudy Fine 20.4 1014.4 0.0
03/08:50pm NNE 25 35 - - - - - - - 20.4 1014.4 0.0
03/08:30pm NNE 25 30 - - - - - - - 20.4 1014.5 0.0
03/08:07pm NNE 25 35 - - - - - - - 20.4 1014.2 0.0
03/08:00pm NNE 26 35 - - - - - - - 20.6 1014.2 0.0
03/07:42pm NNE 26 36 - - - - - - - 20.4 1014.2 0.0
03/07:30pm NNE 26 35 - - - - - - - 20.4 1013.9 0.0
03/07:27pm NNE 25 35 - - - - - - - 20.4 1013.9 0.0
03/07:00pm NNE 25 31 - - - - - - - 20.3 1014.0 0.0
03/06:30pm NNE 24 30 - - - - - - - 20.2 1014.3 0.0
03/06:00pm NNE 22 28 - - - - - - - 20.2 1014.2 0.0
03/05:30pm NNE 23 28 - - - - - - - 20.0 1013.9 0.0
03/05:00pm NNE 21 26 - - - - - - - 20.4 1013.9 0.0
03/04:30pm NNE 23 28 - - - - - - - 20.6 1014.0 0.0
03/04:00pm NNE 23 30 - - - - - - - 20.4 1014.3 0.0
03/03:30pm NNE 26 31 - - - - - - - 20.9 1014.4 0.0
03/03:00pm NNE 28 34 2 2.0 9 NE 25 Mostly cloudy Fine 21.3 1014.4 0.0
03/02:30pm NNE 27 32 - - - - - - - 21.1 1014.4 0.0
03/02:00pm NNE 27 33 - - - - - - - 21.4 1014.5 0.0
03/01:30pm NNE 30 38 - - - - - - - 21.6 1014.5 0.0
03/01:00pm NNE 29 35 - - - - - - - 21.8 1014.8 0.0
03/12:30pm NNE 29 36 - - - - - - - 21.4 1015.3 0.0
03/12:00pm NNE 30 37 - - - - - - - 21.0 1015.5 0.0
03/11:30am NNE 25 30 - - - - - - - 20.7 1016.1 0.0
03/11:00am NNE 27 32 - - - - - - - 20.5 1016.6 0.0
03/10:30am NNE 27 37 - - - - - - - 20.7 1017.0 0.0
03/10:23am NNE 27 37 - - - - - - - 21.1 1016.9 0.0
03/10:00am NNE 29 34 - - - - - - - 20.5 1017.0 0.0
03/09:30am NNE 29 35 - - - - - - - 20.0 1017.4 0.0
03/09:00am NNE 29 34 2 2.0 9 NE 25 Mostly cloudy Fine 19.9 1017.6 0.0
03/08:30am NNE 29 35 - - - - - - - 19.8 1017.8 0.0
03/08:00am NNE 29 38 - - - - - - - 19.7 1017.7 0.0
03/07:30am NNE 28 34 - - - - - - - 19.6 1017.5 0.0
03/07:00am NNE 28 33 - - - - - - - 19.6 1017.3 0.0
03/06:30am NNE 28 35 - - - - - - - 19.6 1017.3 0.0
03/06:03am NNE 27 37 - - - - - - - 19.9 1017.1 0.0
03/06:00am NNE 27 34 - - - - - - - 19.7 1017.3 0.0
03/05:30am NNE 27 33 - - - - - - - 20.0 1017.4 0.0
03/05:00am NNE 28 35 - - - - - - - 20.0 1017.4 0.0
03/04:30am NNE 29 36 - - - - - - - 20.0 1017.1 0.0
03/04:00am NNE 28 37 - - - - - - - 20.1 1017.4 0.0
03/03:52am NNE 26 36 - - - - - - - 20.1 1017.5 0.0
03/03:30am NNE 25 33 - - - - - - - 20.0 1017.9 0.0
03/03:00am NNE 27 34 2 2.0 9 NE 25 Cloudy Fine 20.2 1017.7 0.0
03/02:30am NNE 27 36 - - - - - - - 20.3 1017.8 0.0
03/02:00am NNE 27 33 - - - - - - - 20.4 1018.3 0.0
03/01:43am NNE 26 36 - - - - - - - 20.4 1018.5 0.0
03/01:30am NNE 29 37 - - - - - - - 20.5 1018.1 0.0
03/01:00am NNE 31 39 - - - - - - - 20.5 1018.5 0.0
03/12:30am NNE 29 37 - - - - - - - 20.5 1018.8 0.0
03/12:00am NNE 29 42 - - - - - - - 20.5 1018.9 0.0
 
Date/Time
EST
Wind Sea
Height
m
Swell Vis
km
Cloud Weather Temp
°C
Press
MSL
hPa
Rain since
9am
mm
Dir  Spd
kts
Gust
kts
Height
m
Period
s
Dir
02/11:55pm NNE 30 42 - - - - - - - 20.8 1018.8 0.0
02/11:30pm NNE 27 35 - - - - - - - 20.7 1019.3 0.0
02/11:00pm NNE 27 34 - - - - - - - 20.5 1019.6 0.0
02/10:30pm NNE 28 35 - - - - - - - 20.6 1019.6 0.0
02/10:00pm NNE 29 37 - - - - - - - 20.5 1019.8 0.0
02/09:30pm NNE 27 34 - - - - - - - 20.5 1020.1 0.0
02/09:00pm NNE 25 30 2 2.0 8 NE 25 Cloudy Fine 20.5 1020.4 0.0
02/08:30pm NNE 24 28 - - - - - - - 20.4 1020.3 0.0
02/08:00pm NNE 22 28 - - - - - - - 20.5 1020.6 0.0
02/07:30pm NNE 24 29 - - - - - - - 20.6 1020.1 0.0
02/07:00pm NNE 23 28 - - - - - - - 20.5 1020.2 0.0
02/06:30pm NNE 21 25 - - - - - - - 20.2 1020.0 0.0
02/06:00pm NNE 20 24 - - - - - - - 20.1 1019.9 0.0
02/05:30pm NNE 20 24 - - - - - - - 20.0 1019.8 0.0
02/05:00pm NNE 19 23 - - - - - - - 20.0 1019.9 0.0
02/04:30pm NNE 20 24 - - - - - - - 20.0 1019.8 0.0
02/04:00pm NNE 19 23 - - - - - - - 20.2 1019.9 0.0
02/03:30pm NNE 16 19 - - - - - - - 20.4 1020.2 0.0
02/03:00pm NNE 17 21 1 1.0 8 NE 40 Cloudy Fine 20.5 1020.4 0.0
02/02:30pm NNE 17 20 - - - - - - - 21.1 1020.7 0.0
02/02:00pm NNE 13 16 - - - - - - - 20.7 1020.7 0.0
02/01:30pm NNE 13 17 - - - - - - - 20.6 1021.1 0.0
02/01:00pm NNE 16 20 - - - - - - - 20.6 1021.3 0.0
02/12:30pm NE 16 18 - - - - - - - 21.0 1021.6 0.0
02/12:00pm NE 15 18 - - - - - - - 21.2 1022.1 0.0
02/11:30am NE 14 16 - - - - - - - 20.9 1022.7 0.0
02/11:00am NE 15 17 - - - - - - - 21.2 1023.2 0.0
02/10:30am NE 14 17 - - - - - - - 20.3 1023.5 0.0
02/10:00am NE 11 14 - - - - - - - 20.0 1023.7 0.0
02/09:30am NE 13 15 - - - - - - - 20.0 1024.0 0.0
02/09:00am NE 13 14 1 1.0 7 NE 40 Mostly cloudy Fine 19.5 1024.1 0.0
02/08:30am ENE 10 11 - - - - - - - 18.9 1024.3 0.0
02/08:00am ENE 11 12 - - - - - - - 18.4 1024.3 0.0
02/07:30am NE 10 11 - - - - - - - 18.0 1024.1 0.0
02/07:00am NNE 8 10 - - - - - - - 17.2 1024.2 0.0
02/06:30am NNE 9 11 - - - - - - - 17.3 1024.0 0.0
02/06:00am NNE 10 12 - - - - - - - 17.3 1023.9 0.0
02/05:30am NNE 12 14 - - - - - - - 17.7 1023.6 0.0
02/05:00am N 11 13 - - - - - - - 17.5 1023.7 0.0
02/04:30am NNE 12 16 - - - - - - - 17.6 1023.5 0.0
02/04:00am NNE 10 13 - - - - - - - 17.6 1023.5 0.0
02/03:30am NNE 11 14 - - - - - - - 18.1 1023.7 0.0
02/03:00am NNE 13 16 1 1.0 7 NE 25 Partly cloudy Fine 18.2 1023.9 0.0
02/02:30am NNE 19 25 - - - - - - - 18.9 1023.9 0.0
02/02:00am NNE 23 29 - - - - - - - 18.9 1023.9 0.0
02/01:30am NNE 21 26 - - - - - - - 18.9 1024.1 0.0
02/01:00am NNE 21 27 - - - - - - - 19.0 1024.2 0.0
02/12:30am NNE 21 26 - - - - - - - 19.0 1024.5 0.0
02/12:00am NNE 20 25 - - - - - - - 18.9 1024.6 0.0
 
Date/Time
EST
Wind Sea
Height
m
Swell Vis
km
Cloud Weather Temp
°C
Press
MSL
hPa
Rain since
9am
mm
Dir  Spd
kts
Gust
kts
Height
m
Period
s
Dir
01/11:30pm NNE 20 26 - - - - - - - 19.0 1024.7 0.0
01/11:00pm NNE 17 22 - - - - - - - 19.1 1025.1 0.0
01/10:30pm NNE 18 22 - - - - - - - 19.1 1025.3 0.0
01/10:00pm NNE 19 21 - - - - - - - 19.1 1025.4 0.0
01/09:30pm NNE 21 24 - - - - - - - 19.4 1025.3 0.0
01/09:00pm NNE 19 23 1 1.0 7 NE 25 Mostly clear Fine 19.4 1025.4 0.0
01/08:30pm NNE 19 25 - - - - - - - 19.6 1025.3 0.0
01/08:00pm NNE 19 24 - - - - - - - 19.6 1025.2 0.0

Other formats

Comma delimited format used in spreadsheet applications
http://www.bom.gov.au/fwo/IDV60701/IDV60701.94933.axf

JavaScript Object Notation format (JSON) in row-major order
http://www.bom.gov.au/fwo/IDV60701/IDV60701.94933.json

Data quality

Most of these data are generated automatically and are frequently updated. Quality checks on data are not normally performed. It is possible for incorrect values to appear. Refer to information at About Latest Weather Observations and please check the disclaimer before using these data.